createdAt,value
2022-10-21T00:00:51.910Z,19.90
2022-10-21T00:03:20.771Z,18.87
2022-10-21T00:05:49.813Z,19.80
2022-10-21T00:08:18.735Z,18.75
2022-10-21T00:10:47.179Z,19.33
2022-10-21T00:13:15.162Z,18.52
2022-10-21T00:15:44.521Z,19.05
2022-10-21T00:18:12.520Z,19.10
2022-10-21T00:20:42.118Z,18.80
2022-10-21T00:23:11.023Z,18.27
2022-10-21T00:25:40.312Z,19.05
2022-10-21T00:28:08.345Z,19.20
2022-10-21T00:30:36.364Z,19.13
2022-10-21T00:33:05.756Z,20.17
2022-10-21T00:35:35.151Z,18.45
2022-10-21T00:38:03.246Z,17.65
2022-10-21T00:40:31.746Z,18.02
2022-10-21T00:43:00.164Z,17.20
2022-10-21T00:45:29.137Z,16.42
2022-10-21T00:48:02.677Z,16.38
2022-10-21T00:50:40.330Z,17.88
2022-10-21T00:53:15.044Z,18.77
2022-10-21T00:55:48.628Z,18.65
2022-10-21T00:58:17.896Z,18.05
2022-10-21T01:00:45.963Z,19.25
2022-10-21T01:03:14.781Z,18.45
2022-10-21T01:05:45.485Z,18.88
2022-10-21T01:08:14.535Z,17.70
2022-10-21T01:10:43.100Z,17.88
2022-10-21T01:13:22.199Z,19.77
2022-10-21T01:15:56.889Z,15.98
2022-10-21T01:18:31.980Z,17.95
2022-10-21T01:21:11.199Z,17.60
2022-10-21T01:24:12.984Z,16.83
2022-10-21T01:27:11.252Z,16.45
2022-10-21T01:30:12.084Z,17.75
2022-10-21T01:33:13.097Z,18.08
2022-10-21T01:35:48.965Z,16.23
2022-10-21T01:38:23.913Z,16.02
2022-10-21T01:40:58.341Z,17.08
2022-10-21T01:43:36.440Z,16.88
2022-10-21T01:46:08.129Z,16.92
2022-10-21T01:48:42.988Z,16.85
2022-10-21T01:51:12.093Z,17.25
2022-10-21T01:53:43.172Z,16.80
2022-10-21T01:56:14.098Z,16.77
2022-10-21T01:58:45.636Z,16.73
2022-10-21T02:01:15.252Z,16.58
2022-10-21T02:03:48.210Z,18.10
2022-10-21T02:06:16.417Z,15.82
2022-10-21T02:08:44.823Z,14.75
2022-10-21T02:11:13.845Z,16.90
2022-10-21T02:13:47.389Z,17.25
2022-10-21T02:16:19.692Z,16.30
2022-10-21T02:18:49.074Z,16.58
2022-10-21T02:21:21.166Z,18.00
2022-10-21T02:23:54.391Z,16.08
2022-10-21T02:26:23.255Z,16.10
2022-10-21T02:28:53.754Z,17.15
2022-10-21T02:31:40.551Z,16.58
2022-10-21T02:34:21.458Z,15.75
2022-10-21T02:36:57.110Z,16.10
2022-10-21T02:39:31.949Z,17.52
2022-10-21T02:42:03.246Z,16.67
2022-10-21T02:44:31.796Z,16.40
2022-10-21T02:46:59.997Z,16.52
2022-10-21T02:49:29.398Z,16.92
2022-10-21T02:51:57.690Z,17.42
2022-10-21T02:54:25.748Z,17.58
2022-10-21T02:56:53.745Z,15.48
2022-10-21T02:59:21.776Z,17.80
2022-10-21T03:01:49.840Z,17.48
2022-10-21T03:04:17.906Z,16.65
2022-10-21T03:06:47.291Z,18.38
2022-10-21T03:09:15.281Z,17.20
2022-10-21T03:11:43.335Z,19.02
2022-10-21T03:14:11.363Z,18.40
2022-10-21T03:16:39.404Z,18.48
2022-10-21T03:19:07.504Z,16.33
2022-10-21T03:21:35.484Z,17.10
2022-10-21T03:24:10.975Z,16.65
2022-10-21T03:26:47.879Z,17.73
2022-10-21T03:29:16.045Z,18.00
2022-10-21T03:31:44.651Z,18.35
2022-10-21T03:34:12.674Z,14.57
2022-10-21T03:36:40.708Z,17.85
2022-10-21T03:39:11.281Z,18.38
2022-10-21T03:41:39.561Z,17.10
2022-10-21T03:44:07.661Z,18.95
2022-10-21T03:46:35.685Z,17.83
2022-10-21T03:49:06.028Z,17.73
2022-10-21T03:51:37.157Z,18.10
2022-10-21T03:54:05.263Z,18.63
2022-10-21T03:56:34.699Z,18.65
2022-10-21T03:59:02.676Z,18.92
2022-10-21T04:01:30.731Z,19.05
2022-10-21T04:03:58.846Z,22.27
2022-10-21T04:06:26.967Z,19.45
2022-10-21T04:08:55.230Z,20.13
2022-10-21T04:11:23.298Z,19.58
2022-10-21T04:13:52.732Z,17.05
2022-10-21T04:16:22.610Z,17.08
2022-10-21T04:18:50.641Z,18.30
2022-10-21T04:21:18.846Z,19.17
2022-10-21T04:23:46.933Z,22.00
2022-10-21T04:26:14.962Z,19.23
2022-10-21T04:28:43.018Z,17.98
2022-10-21T04:31:12.397Z,19.60
2022-10-21T04:33:40.425Z,19.08
2022-10-21T04:36:08.911Z,17.50
2022-10-21T04:38:36.916Z,19.08
2022-10-21T04:41:05.467Z,18.85
2022-10-21T04:43:33.453Z,20.00
2022-10-21T04:46:01.495Z,19.38
2022-10-21T04:48:30.865Z,20.48
2022-10-21T04:50:58.892Z,18.75
2022-10-21T04:53:26.933Z,19.08
2022-10-21T04:55:55.508Z,18.65
2022-10-21T04:58:23.869Z,19.00
2022-10-21T05:00:52.484Z,20.58
2022-10-21T05:03:21.206Z,18.98
2022-10-21T05:05:51.837Z,18.73
2022-10-21T05:08:20.590Z,20.45
2022-10-21T05:10:48.710Z,18.90
2022-10-21T05:13:17.142Z,19.38
2022-10-21T05:15:45.309Z,19.40
2022-10-21T05:18:13.299Z,18.60
2022-10-21T05:20:42.348Z,19.38
2022-10-21T05:23:11.741Z,19.05
2022-10-21T05:25:39.712Z,18.27
2022-10-21T05:28:07.706Z,17.52
2022-10-21T05:30:35.756Z,17.42
2022-10-21T05:33:03.800Z,17.10
2022-10-21T05:35:31.918Z,17.42
2022-10-21T05:37:59.962Z,18.98
2022-10-21T05:40:29.573Z,19.40
2022-10-21T05:42:57.580Z,18.63
2022-10-21T05:45:26.976Z,19.08
2022-10-21T05:47:55.054Z,16.20
2022-10-21T05:50:23.069Z,16.73
2022-10-21T05:52:51.054Z,16.40
2022-10-21T05:55:19.169Z,15.85
2022-10-21T05:57:48.581Z,17.35
2022-10-21T06:00:16.858Z,15.95
2022-10-21T06:02:44.919Z,16.48
2022-10-21T06:05:13.080Z,17.27
2022-10-21T06:07:41.520Z,15.68
2022-10-21T06:10:12.127Z,14.85
2022-10-21T06:12:40.214Z,14.40
2022-10-21T06:15:10.652Z,14.60
2022-10-21T06:17:38.882Z,14.68
2022-10-21T06:20:07.893Z,15.75
2022-10-21T06:22:35.844Z,13.95
2022-10-21T06:25:03.984Z,15.88
2022-10-21T06:27:31.983Z,15.02
2022-10-21T06:29:59.992Z,15.30
2022-10-21T06:32:29.357Z,14.07
2022-10-21T06:34:57.332Z,15.88
2022-10-21T06:37:25.357Z,15.43
2022-10-21T06:39:53.361Z,14.50
2022-10-21T06:42:21.684Z,14.40
2022-10-21T06:44:49.663Z,14.25
2022-10-21T06:47:18.131Z,14.40
2022-10-21T06:49:47.485Z,14.10
2022-10-21T06:52:15.568Z,15.40
2022-10-21T06:54:43.686Z,15.38
2022-10-21T06:57:11.668Z,15.48
2022-10-21T06:59:39.693Z,15.52
2022-10-21T07:02:07.864Z,15.25
2022-10-21T07:04:35.847Z,15.90
2022-10-21T07:07:05.252Z,17.73
2022-10-21T07:09:33.442Z,16.20
2022-10-21T07:12:02.638Z,16.40
2022-10-21T07:14:30.832Z,17.30
2022-10-21T07:16:59.045Z,16.58
2022-10-21T07:19:27.335Z,17.52
2022-10-21T07:21:55.352Z,16.23
2022-10-21T07:24:24.719Z,18.15
2022-10-21T07:26:52.985Z,17.85
2022-10-21T07:29:20.930Z,19.35
2022-10-21T07:31:48.938Z,16.98
2022-10-21T07:34:17.062Z,18.00
2022-10-21T07:36:48.370Z,17.55
2022-10-21T07:39:18.729Z,18.45
2022-10-21T07:41:50.516Z,18.35
2022-10-21T07:44:19.343Z,17.73
2022-10-21T07:46:49.339Z,19.67
2022-10-21T07:49:18.394Z,18.90
2022-10-21T07:51:46.576Z,18.02
2022-10-21T07:54:15.841Z,19.05
2022-10-21T07:56:45.808Z,19.35
2022-10-21T07:59:16.521Z,18.70
2022-10-21T08:01:47.338Z,18.05
2022-10-21T08:04:17.900Z,18.58
2022-10-21T08:06:47.473Z,19.05
2022-10-21T08:11:43.887Z,18.45
2022-10-21T08:14:12.110Z,18.02
2022-10-21T08:16:42.260Z,18.80
2022-10-21T08:19:13.481Z,18.52
2022-10-21T08:21:41.552Z,19.27
2022-10-21T08:24:09.559Z,18.67
2022-10-21T08:26:37.581Z,17.58
2022-10-21T08:29:06.133Z,17.25
2022-10-21T08:31:34.151Z,16.13
2022-10-21T08:34:03.544Z,15.90
2022-10-21T08:36:31.544Z,15.75
2022-10-21T08:38:59.816Z,16.15
2022-10-21T08:41:59.497Z,16.13
2022-10-21T08:44:36.668Z,15.63
2022-10-21T08:49:51.758Z,15.98
2022-10-21T08:52:23.071Z,16.65
2022-10-21T08:54:56.153Z,14.82
2022-10-21T08:57:24.636Z,15.35
2022-10-21T08:59:52.740Z,16.92
2022-10-21T09:02:36.884Z,15.27
2022-10-21T09:05:23.743Z,15.00
2022-10-21T09:08:01.948Z,15.85
2022-10-21T09:10:36.987Z,16.10
2022-10-21T09:13:13.468Z,16.27
2022-10-21T09:15:52.652Z,16.25
2022-10-21T09:18:32.113Z,15.32
2022-10-21T09:23:53.209Z,14.93
2022-10-21T09:26:35.385Z,16.30
2022-10-21T09:29:25.568Z,15.35
2022-10-21T09:31:58.476Z,15.40
2022-10-21T09:34:41.719Z,15.85
2022-10-21T09:37:18.981Z,15.07
2022-10-21T09:39:51.636Z,15.50
2022-10-21T09:42:42.303Z,16.65
2022-10-21T09:45:18.340Z,16.02
2022-10-21T09:47:47.756Z,17.07
2022-10-21T09:50:18.071Z,16.67
2022-10-21T09:52:55.959Z,17.48
2022-10-21T09:55:25.170Z,17.00
2022-10-21T09:57:58.350Z,16.30
2022-10-21T10:00:46.185Z,15.93
2022-10-21T10:03:29.725Z,15.50
2022-10-21T10:05:58.584Z,15.98
2022-10-21T10:08:34.384Z,15.70
2022-10-21T10:11:14.335Z,16.17
2022-10-21T10:13:45.132Z,16.42
2022-10-21T10:16:16.415Z,16.98
2022-10-21T10:18:45.609Z,14.85
2022-10-21T10:21:15.967Z,15.38
2022-10-21T10:23:47.737Z,22.45
2022-10-21T10:26:22.198Z,15.82
2022-10-21T10:28:53.171Z,15.15
2022-10-21T10:31:27.073Z,16.70
2022-10-21T10:34:07.474Z,16.15
2022-10-21T10:36:38.308Z,15.98
2022-10-21T10:39:09.988Z,16.48
2022-10-21T10:41:40.600Z,15.82
2022-10-21T10:44:21.736Z,17.38
2022-10-21T10:46:55.528Z,17.17
2022-10-21T10:49:25.716Z,18.25
2022-10-21T10:52:16.891Z,16.05
2022-10-21T10:54:46.261Z,17.65
2022-10-21T10:57:16.974Z,18.15
2022-10-21T10:59:47.876Z,17.33
2022-10-21T11:02:35.271Z,17.35
2022-10-21T11:05:26.297Z,17.08
2022-10-21T11:07:57.561Z,17.20
2022-10-21T11:10:35.396Z,17.85
2022-10-21T11:13:06.128Z,17.88
2022-10-21T11:15:47.891Z,17.17
2022-10-21T11:18:24.325Z,17.85
2022-10-21T11:21:02.338Z,16.85
2022-10-21T11:23:52.362Z,16.92
2022-10-21T11:26:34.592Z,18.35
2022-10-21T11:29:14.985Z,18.35
2022-10-21T11:32:10.716Z,18.73
2022-10-21T11:34:54.155Z,15.73
2022-10-21T11:37:34.521Z,17.35
2022-10-21T11:40:15.150Z,19.92
2022-10-21T11:42:46.133Z,20.95
2022-10-21T11:45:35.390Z,17.40
2022-10-21T11:48:15.564Z,17.88
2022-10-21T11:50:51.787Z,18.40
2022-10-21T11:53:35.102Z,17.23
2022-10-21T11:56:15.540Z,16.83
2022-10-21T11:58:56.442Z,18.95
2022-10-21T12:01:37.595Z,16.42
2022-10-21T12:04:26.075Z,16.70
2022-10-21T12:07:07.674Z,16.70
2022-10-21T12:09:43.582Z,16.65
2022-10-21T12:12:14.205Z,17.17
2022-10-21T12:14:47.817Z,16.88
2022-10-21T12:17:20.965Z,16.02
2022-10-21T12:19:55.688Z,16.48
2022-10-21T12:22:25.645Z,15.43
2022-10-21T12:25:02.422Z,18.75
2022-10-21T12:27:35.861Z,15.45
2022-10-21T12:30:12.970Z,15.55
2022-10-21T12:32:47.976Z,15.75
2022-10-21T12:35:17.920Z,14.00
2022-10-21T12:38:02.054Z,15.50
2022-10-21T12:40:39.047Z,15.40
2022-10-21T12:43:17.488Z,15.20
2022-10-21T12:45:48.791Z,14.73
2022-10-21T12:48:33.880Z,14.52
2022-10-21T12:51:04.345Z,14.27
2022-10-21T12:53:39.408Z,13.80
2022-10-21T12:56:09.908Z,14.57
2022-10-21T12:58:42.310Z,16.08
2022-10-21T13:01:42.290Z,14.55
2022-10-21T13:04:47.952Z,14.13
2022-10-21T13:07:36.249Z,14.77
2022-10-21T13:10:35.390Z,14.50
2022-10-21T13:13:29.728Z,16.20
2022-10-21T13:15:57.800Z,14.90
2022-10-21T13:18:56.643Z,15.95
2022-10-21T13:21:39.598Z,15.70
2022-10-21T13:24:23.712Z,16.23
2022-10-21T13:26:55.663Z,14.93
2022-10-21T13:29:43.402Z,12.73
2022-10-21T13:32:22.220Z,18.90
2022-10-21T13:35:04.406Z,13.65
2022-10-21T13:37:36.111Z,12.68
2022-10-21T13:40:10.027Z,13.68
2022-10-21T13:42:41.785Z,17.58
2022-10-21T13:45:23.444Z,12.80
2022-10-21T13:48:04.943Z,14.52
2022-10-21T13:50:38.585Z,12.35
2022-10-21T13:53:24.165Z,12.27
2022-10-21T13:56:00.277Z,12.45
2022-10-21T13:58:30.003Z,12.40
2022-10-21T14:00:59.112Z,12.43
2022-10-21T14:03:28.275Z,12.00
2022-10-21T14:06:00.927Z,12.70
2022-10-21T14:08:33.059Z,12.80
2022-10-21T14:11:05.571Z,12.27
2022-10-21T14:13:37.683Z,12.55
2022-10-21T14:16:07.680Z,18.52
2022-10-21T14:18:39.795Z,13.25
2022-10-21T14:21:15.184Z,10.48
2022-10-21T14:23:45.391Z,11.80
2022-10-21T14:26:13.840Z,11.80
2022-10-21T14:28:42.687Z,11.85
2022-10-21T14:31:12.732Z,11.65
2022-10-21T14:33:45.024Z,10.23
2022-10-21T14:36:18.877Z,11.70
2022-10-21T14:38:54.824Z,11.18
2022-10-21T14:41:26.827Z,10.73
2022-10-21T14:43:56.115Z,11.50
2022-10-21T14:46:24.134Z,11.60
2022-10-21T14:48:55.565Z,11.57
2022-10-21T14:51:25.124Z,11.32
2022-10-21T14:53:56.082Z,15.60
2022-10-21T14:56:30.339Z,12.98
2022-10-21T14:59:00.362Z,12.35
2022-10-21T15:01:28.831Z,11.77
2022-10-21T15:03:59.436Z,10.90
2022-10-21T15:06:32.665Z,12.23
2022-10-21T15:09:16.702Z,12.70
2022-10-21T15:11:46.228Z,12.93
2022-10-21T15:17:01.982Z,11.48
2022-10-21T15:19:42.713Z,10.02
2022-10-21T15:22:26.831Z,10.68
2022-10-21T15:24:59.732Z,15.90
2022-10-21T15:27:35.117Z,14.35
2022-10-21T15:30:16.708Z,35.67
2022-10-21T15:32:44.757Z,17.92
2022-10-21T15:35:15.494Z,15.20
2022-10-21T15:37:48.083Z,12.32
2022-10-21T15:40:16.412Z,11.85
2022-10-21T15:42:45.362Z,12.05
2022-10-21T15:45:15.524Z,14.07
2022-10-21T15:47:43.623Z,11.88
2022-10-21T15:50:15.407Z,12.93
2022-10-21T15:52:44.869Z,12.88
2022-10-21T15:57:41.935Z,11.00
2022-10-21T16:00:17.512Z,10.65
2022-10-21T16:02:46.361Z,11.82
2022-10-21T16:05:14.450Z,10.55
2022-10-21T16:07:44.695Z,13.18
2022-10-21T16:10:20.256Z,11.23
2022-10-21T16:12:48.759Z,12.38
2022-10-21T16:15:17.429Z,12.35
2022-10-21T16:17:47.059Z,11.50
2022-10-21T16:20:17.095Z,12.80
2022-10-21T16:22:46.491Z,11.68
2022-10-21T16:25:14.978Z,11.75
2022-10-21T16:27:54.680Z,11.60
2022-10-21T16:30:25.154Z,12.57
2022-10-21T16:32:53.273Z,12.55
2022-10-21T16:35:22.317Z,13.43
2022-10-21T16:37:52.576Z,12.00
2022-10-21T16:40:24.096Z,12.15
2022-10-21T16:42:53.034Z,13.27
2022-10-21T16:45:23.359Z,12.68
2022-10-21T16:47:56.448Z,12.93
2022-10-21T16:50:29.881Z,15.55
2022-10-21T16:53:01.948Z,13.25
2022-10-21T16:55:30.053Z,12.68
2022-10-21T16:57:58.058Z,13.38
2022-10-21T17:00:26.094Z,13.02
2022-10-21T17:02:54.103Z,12.98
2022-10-21T17:05:22.469Z,13.85
2022-10-21T17:07:50.511Z,12.65
2022-10-21T17:10:20.188Z,12.98
2022-10-21T17:12:48.200Z,12.70
2022-10-21T17:15:17.311Z,12.75
2022-10-21T17:17:45.294Z,11.57
2022-10-21T17:20:13.363Z,13.82
2022-10-21T17:22:41.380Z,12.02
2022-10-21T17:25:11.791Z,12.18
2022-10-21T17:27:41.617Z,13.02
2022-10-21T17:30:12.158Z,30.20
2022-10-21T17:32:40.209Z,16.27
2022-10-21T17:35:14.205Z,13.45
2022-10-21T17:37:42.238Z,13.07
2022-10-21T17:40:11.785Z,13.32
2022-10-21T17:45:11.713Z,11.85
2022-10-21T17:47:39.816Z,11.77
2022-10-21T17:50:08.960Z,12.10
2022-10-21T17:52:37.885Z,13.15
2022-10-21T17:55:07.208Z,11.90
2022-10-21T17:57:35.267Z,12.50
2022-10-21T18:00:06.565Z,11.45
2022-10-21T18:02:35.732Z,11.25
2022-10-21T18:05:04.263Z,11.82
2022-10-21T18:07:32.450Z,12.32
2022-10-21T18:10:00.585Z,13.05
2022-10-21T18:12:30.284Z,12.98
2022-10-21T18:14:58.256Z,12.05
2022-10-21T18:17:27.686Z,13.77
2022-10-21T18:19:55.703Z,12.65
2022-10-21T18:22:23.665Z,12.77
2022-10-21T18:24:52.643Z,13.32
2022-10-21T18:27:20.694Z,13.00
2022-10-21T18:29:48.820Z,13.43
2022-10-21T18:32:16.849Z,14.18
2022-10-21T18:34:46.201Z,12.27
2022-10-21T18:37:14.625Z,13.45
2022-10-21T18:39:42.780Z,12.50
2022-10-21T18:42:10.808Z,12.70
2022-10-21T18:44:38.852Z,14.23
2022-10-21T18:47:06.965Z,13.63
2022-10-21T18:49:35.680Z,14.88
2022-10-21T18:52:05.593Z,13.60
2022-10-21T18:54:33.593Z,14.63
2022-10-21T18:57:01.609Z,13.98
2022-10-21T18:59:29.598Z,15.30
2022-10-21T19:01:57.618Z,15.65
2022-10-21T19:04:25.632Z,18.85
2022-10-21T19:06:53.680Z,16.63
2022-10-21T19:09:25.788Z,17.60
2022-10-21T19:11:54.809Z,16.38
2022-10-21T19:14:22.847Z,14.43
2022-10-21T19:16:51.075Z,15.32
2022-10-21T19:19:19.077Z,15.82
2022-10-21T19:21:47.363Z,14.23
2022-10-21T19:24:15.446Z,15.23
2022-10-21T19:26:46.315Z,16.25
2022-10-21T19:29:17.270Z,14.45
2022-10-21T19:36:43.222Z,14.90
2022-10-21T19:39:11.371Z,16.25
2022-10-21T19:41:39.387Z,16.20
2022-10-21T19:44:09.117Z,15.05
2022-10-21T19:46:37.865Z,15.25
2022-10-21T19:49:07.797Z,15.27
2022-10-21T19:51:36.782Z,15.68
2022-10-21T19:54:06.513Z,16.20
2022-10-21T19:56:34.988Z,16.05
2022-10-21T19:59:03.448Z,15.75
2022-10-21T20:01:34.621Z,14.93
2022-10-21T20:04:03.733Z,14.20
2022-10-21T20:06:33.476Z,14.07
2022-10-21T20:09:03.500Z,19.20
2022-10-21T20:11:31.754Z,17.88
2022-10-21T20:14:00.094Z,21.98
2022-10-21T20:16:29.995Z,16.75
2022-10-21T20:19:01.345Z,17.08
2022-10-21T20:21:30.679Z,17.48
2022-10-21T20:23:59.472Z,15.82
2022-10-21T20:26:28.718Z,15.48
2022-10-21T20:28:57.451Z,16.67
2022-10-21T20:31:25.659Z,16.52
2022-10-21T20:33:53.911Z,16.70
2022-10-21T20:36:25.360Z,16.27
2022-10-21T20:38:54.998Z,15.30
2022-10-21T20:41:25.906Z,16.67
2022-10-21T20:43:54.854Z,27.55
2022-10-21T20:46:25.074Z,19.00
2022-10-21T20:48:54.229Z,26.52
2022-10-21T20:51:25.078Z,26.83
2022-10-21T20:53:55.848Z,20.38
2022-10-21T20:56:26.814Z,19.48
2022-10-21T20:58:54.989Z,17.15
2022-10-21T21:01:25.556Z,19.17
2022-10-21T21:03:54.951Z,17.48
2022-10-21T21:06:24.949Z,17.67
2022-10-21T21:09:22.205Z,17.55
2022-10-21T21:11:41.413Z,17.60
2022-10-21T21:14:09.445Z,17.50
2022-10-21T21:16:37.842Z,16.95
2022-10-21T21:19:08.639Z,17.98
2022-10-21T21:21:38.016Z,15.90
2022-10-21T21:24:06.546Z,17.58
2022-10-21T21:26:37.210Z,17.83
2022-10-21T21:29:07.226Z,15.57
2022-10-21T21:31:36.770Z,15.73
2022-10-21T21:34:05.500Z,17.02
2022-10-21T21:36:33.889Z,15.80
2022-10-21T21:39:03.617Z,16.63
2022-10-21T21:41:31.674Z,15.68
2022-10-21T21:43:59.756Z,14.32
2022-10-21T21:46:28.074Z,15.43
2022-10-21T21:49:00.936Z,14.93
2022-10-21T21:51:31.503Z,15.35
2022-10-21T21:54:00.237Z,16.45
2022-10-21T21:56:29.701Z,16.50
2022-10-21T21:58:58.180Z,15.52
2022-10-21T22:01:28.609Z,15.88
2022-10-21T22:03:57.634Z,15.10
2022-10-21T22:06:31.849Z,15.00
2022-10-21T22:09:01.029Z,15.27
2022-10-21T22:11:32.956Z,15.85
2022-10-21T22:14:01.285Z,14.90
2022-10-21T22:16:30.919Z,15.95
2022-10-21T22:19:00.915Z,15.50
2022-10-21T22:21:31.296Z,14.88
2022-10-21T22:23:59.351Z,15.75
2022-10-21T22:26:27.648Z,15.65
2022-10-21T22:28:57.040Z,14.60
2022-10-21T22:31:29.292Z,15.80
2022-10-21T22:33:59.928Z,13.43
2022-10-21T22:36:28.184Z,12.80
2022-10-21T22:38:56.177Z,13.63
2022-10-21T22:41:24.201Z,14.93
2022-10-21T22:43:52.324Z,14.02
2022-10-21T22:46:29.771Z,16.00
2022-10-21T22:49:01.947Z,15.75
2022-10-21T22:51:29.959Z,14.52
2022-10-21T22:53:57.988Z,14.25
2022-10-21T22:56:26.618Z,14.68
2022-10-21T22:58:54.696Z,13.23
2022-10-21T23:01:26.636Z,14.40
2022-10-21T23:03:54.623Z,13.70
2022-10-21T23:06:22.856Z,13.30
2022-10-21T23:08:50.985Z,13.80
2022-10-21T23:11:19.087Z,13.90
2022-10-21T23:13:56.408Z,15.07
2022-10-21T23:16:32.548Z,16.02
2022-10-21T23:21:29.298Z,15.25
2022-10-21T23:23:57.375Z,12.65
2022-10-21T23:26:25.579Z,16.48
2022-10-21T23:28:53.658Z,16.10
2022-10-21T23:31:21.665Z,14.02
2022-10-21T23:33:51.043Z,13.98
2022-10-21T23:36:19.035Z,13.50
2022-10-21T23:38:47.062Z,13.75
2022-10-21T23:41:15.368Z,14.23
2022-10-21T23:43:43.417Z,14.10
2022-10-21T23:46:11.424Z,14.05
2022-10-21T23:48:39.450Z,13.60
2022-10-21T23:51:08.785Z,13.07
2022-10-21T23:53:36.775Z,13.88
2022-10-21T23:56:05.318Z,14.68
2022-10-21T23:58:33.348Z,15.03
